Time;durP1;ratioP1;P1;durP2;ratioP2;P2;SDS_P1;SDS_P2;PMS_P1;PMS_P2;Temp;Humidity;BMP_temperature;BMP_pressure;BME280_temperature;BME280_humidity;BME280_pressure;Samples;Min_cycle;Max_cycle;Signal;HPM_P1;HPM_P2
2022/01/07 00:01:22;;;;;;;18.52;10.65;;;;;;;2.36;76.45;101299.88;1790338;79;25765;-65
2022/01/07 00:03:51;;;;;;;20.90;11.60;;;;;;;2.34;76.75;101310.54;1782885;79;25427;-65
2022/01/07 00:06:22;;;;;;;15.50;10.32;;;;;;;2.35;76.87;101314.08;1784107;80;27459;-65
2022/01/07 00:08:48;;;;;;;17.73;10.82;;;;;;;2.33;77.21;101321.24;1783215;80;25870;-64
2022/01/07 00:11:17;;;;;;;17.42;9.58;;;;;;;2.32;77.22;101331.46;1782566;80;25758;-64
2022/01/07 00:13:44;;;;;;;18.77;9.83;;;;;;;2.34;77.31;101344.20;1790339;79;25937;-65
2022/01/07 00:16:11;;;;;;;12.63;8.08;;;;;;;2.38;77.47;101351.57;1802792;79;25508;-65
2022/01/07 00:18:44;;;;;;;14.00;8.10;;;;;;;2.40;77.41;101349.71;1803321;79;28141;-66
2022/01/07 00:21:12;;;;;;;14.47;8.58;;;;;;;2.45;77.46;101353.89;1801894;79;25778;-64
2022/01/07 00:23:39;;;;;;;13.03;7.70;;;;;;;2.51;77.42;101366.00;1784284;79;25958;-65
2022/01/07 00:26:06;;;;;;;13.38;7.37;;;;;;;2.56;77.43;101370.66;1783882;80;25844;-66
2022/01/07 00:28:34;;;;;;;16.17;6.90;;;;;;;2.56;77.40;101371.11;1790754;79;27264;-66
2022/01/07 00:31:01;;;;;;;12.00;6.87;;;;;;;2.55;77.46;101381.36;1802358;79;27455;-64
2022/01/07 00:33:29;;;;;;;13.03;6.53;;;;;;;2.52;77.19;101377.02;1781539;79;25920;-65
2022/01/07 00:35:56;;;;;;;10.78;7.08;;;;;;;2.54;77.01;101390.26;1780880;80;25780;-64
2022/01/07 00:38:30;;;;;;;15.28;6.65;;;;;;;2.46;76.62;101391.92;1782524;79;26647;-65
2022/01/07 00:40:58;;;;;;;10.15;5.92;;;;;;;2.43;76.65;101394.70;1778008;80;25720;-66
2022/01/07 00:43:25;;;;;;;15.35;5.70;;;;;;;2.37;76.63;101389.22;1747311;80;28775;-65
2022/01/07 00:45:52;;;;;;;11.30;5.08;;;;;;;2.34;76.53;101402.63;1769191;80;25707;-65
2022/01/07 00:48:20;;;;;;;6.97;4.30;;;;;;;2.25;76.12;101403.88;1761065;81;25788;-65
2022/01/07 00:50:50;;;;;;;8.48;4.97;;;;;;;2.17;75.92;101409.53;1761320;79;26199;-65
2022/01/07 00:53:18;;;;;;;7.25;3.75;;;;;;;2.10;76.15;101408.08;1761192;79;26497;-66
2022/01/07 00:55:48;;;;;;;8.45;4.35;;;;;;;2.03;76.09;101415.88;1760806;81;27530;-66
2022/01/07 00:58:17;;;;;;;5.87;3.60;;;;;;;1.94;75.72;101421.58;1762100;81;26495;-65
2022/01/07 01:00:44;;;;;;;5.42;3.60;;;;;;;1.90;75.88;101426.16;1782363;79;25732;-64
2022/01/07 01:03:10;;;;;;;7.87;4.45;;;;;;;1.74;75.45;101421.09;1772638;79;26262;-65
2022/01/07 01:05:39;;;;;;;5.78;3.30;;;;;;;1.61;75.77;101419.40;1778793;79;26548;-65
2022/01/07 01:08:05;;;;;;;6.33;3.85;;;;;;;1.55;75.86;101424.48;1763162;79;27412;-65
2022/01/07 01:10:32;;;;;;;8.08;3.85;;;;;;;1.49;76.15;101429.57;1762035;79;25754;-66
2022/01/07 01:13:01;;;;;;;10.25;3.17;;;;;;;1.46;76.26;101423.53;1788184;79;25772;-65
2022/01/07 01:15:28;;;;;;;5.03;3.65;;;;;;;1.49;76.33;101425.59;1798764;79;25817;-66
2022/01/07 01:17:58;;;;;;;6.67;3.30;;;;;;;1.48;76.06;101421.21;1799590;79;25491;-65
2022/01/07 01:20:28;;;;;;;8.18;3.52;;;;;;;1.44;75.94;101436.86;1799313;79;27436;-65
2022/01/07 01:22:57;;;;;;;7.40;3.62;;;;;;;1.41;75.74;101444.92;1775037;79;25718;-64
2022/01/07 01:25:25;;;;;;;6.33;3.15;;;;;;;1.39;75.57;101448.13;1764911;79;25828;-65
2022/01/07 01:27:53;;;;;;;5.83;3.08;;;;;;;1.35;75.42;101451.33;1762271;81;26124;-65
2022/01/07 01:30:21;;;;;;;7.42;3.60;;;;;;;1.32;75.05;101447.94;1762057;79;25689;-64
2022/01/07 01:32:49;;;;;;;7.55;3.05;;;;;;;1.29;74.83;101471.45;1784313;79;27435;-65
2022/01/07 01:35:17;;;;;;;4.87;2.70;;;;;;;1.26;74.57;101458.31;1798970;79;26572;-65
2022/01/07 01:37:45;;;;;;;3.83;2.30;;;;;;;1.18;74.03;101474.53;1784137;79;25769;-65
2022/01/07 01:40:13;;;;;;;4.78;2.60;;;;;;;1.10;73.45;101466.00;1775882;79;25877;-65
2022/01/07 01:42:41;;;;;;;4.85;2.20;;;;;;;1.06;73.46;101485.58;1768290;79;25439;-64
2022/01/07 01:45:11;;;;;;;5.78;2.80;;;;;;;1.03;73.07;101484.39;1774662;79;27457;-64
2022/01/07 01:47:41;;;;;;;5.30;2.60;;;;;;;1.01;72.94;101496.82;1762137;81;25720;-64
2022/01/07 01:50:10;;;;;;;7.35;3.10;;;;;;;0.96;72.52;101504.05;1791731;79;25859;-65
2022/01/07 01:52:38;;;;;;;4.05;2.17;;;;;;;0.85;72.16;101506.62;1783259;79;25834;-65
2022/01/07 01:55:06;;;;;;;3.75;2.27;;;;;;;0.81;72.18;101508.16;1730093;81;25803;-64
2022/01/07 01:57:35;;;;;;;5.65;2.52;;;;;;;0.78;72.25;101520.58;1762555;79;27485;-65
2022/01/07 02:00:06;;;;;;;5.67;2.52;;;;;;;0.73;72.34;101525.63;1761367;79;25752;-64
2022/01/07 02:02:35;;;;;;;5.20;2.60;;;;;;;0.71;72.50;101531.44;1779702;79;26388;-65
2022/01/07 02:05:05;;;;;;;4.35;2.52;;;;;;;0.72;72.73;101534.48;1799236;79;25788;-64
2022/01/07 02:07:35;;;;;;;5.45;3.20;;;;;;;0.73;72.81;101529.60;1779162;79;25710;-64
2022/01/07 02:10:05;;;;;;;4.10;2.65;;;;;;;0.76;72.91;101536.13;1762259;79;27506;-64
2022/01/07 02:12:32;;;;;;;4.75;3.15;;;;;;;0.78;72.91;101543.09;1778272;79;26246;-65
2022/01/07 02:15:01;;;;;;;8.73;3.20;;;;;;;0.73;72.54;101541.52;1799562;79;25795;-65
2022/01/07 02:17:28;;;;;;;8.53;3.37;;;;;;;0.65;72.66;101555.48;1799378;79;26115;-65
2022/01/07 02:20:01;;;;;;;5.87;3.42;;;;;;;0.59;72.94;101554.77;1785343;79;25767;-65
2022/01/07 02:22:28;;;;;;;8.10;3.17;;;;;;;0.60;73.23;101556.97;1799774;79;27456;-66
2022/01/07 02:24:55;;;;;;;7.40;2.87;;;;;;;0.59;73.26;101554.77;1798876;79;25493;-65
2022/01/07 02:27:22;;;;;;;5.40;3.67;;;;;;;0.64;73.35;101549.78;1799876;79;25741;-66
2022/01/07 02:29:50;;;;;;;9.23;3.77;;;;;;;0.70;73.65;101543.83;1784181;79;25786;-66
2022/01/07 02:32:19;;;;;;;5.70;3.72;;;;;;;0.73;73.13;101546.81;1796123;79;25448;-66
2022/01/07 02:34:48;;;;;;;6.90;3.42;;;;;;;0.68;72.67;101558.02;1799324;79;27942;-66
2022/01/07 02:37:16;;;;;;;6.80;3.58;;;;;;;0.58;72.19;101558.33;1789162;79;25788;-66
2022/01/07 02:39:45;;;;;;;5.65;3.35;;;;;;;0.50;72.11;101568.31;1770085;79;25799;-66
2022/01/07 02:42:12;;;;;;;8.28;3.75;;;;;;;0.39;71.92;101571.33;1764027;79;25770;-66
2022/01/07 02:44:39;;;;;;;9.43;3.40;;;;;;;0.34;71.79;101569.75;1761559;81;25691;-65
2022/01/07 02:47:05;;;;;;;6.28;3.58;;;;;;;0.30;72.00;101579.13;1761031;81;29581;-66
2022/01/07 02:49:32;;;;;;;5.17;3.12;;;;;;;0.31;72.49;101576.86;1773249;79;25971;-66
2022/01/07 02:51:59;;;;;;;6.78;3.95;;;;;;;0.33;72.20;101583.45;1786976;79;25751;-66
2022/01/07 02:54:27;;;;;;;4.75;3.27;;;;;;;0.34;72.19;101585.19;1762117;79;25796;-66
2022/01/07 02:56:53;;;;;;;8.03;3.27;;;;;;;0.34;72.12;101589.16;1762112;81;25727;-65
2022/01/07 02:59:20;;;;;;;7.40;3.80;;;;;;;0.36;71.81;101594.39;1767724;79;27493;-66
2022/01/07 03:01:48;;;;;;;11.05;3.77;;;;;;;0.37;71.84;101589.51;1795941;79;25717;-66
2022/01/07 03:04:15;;;;;;;5.97;3.30;;;;;;;0.41;71.95;101596.41;1762032;79;25814;-65
2022/01/07 03:06:43;;;;;;;6.25;4.05;;;;;;;0.46;71.74;101595.35;1762033;81;25806;-66
2022/01/07 03:09:10;;;;;;;7.45;3.80;;;;;;;0.49;71.08;101601.47;1764600;79;25746;-66
2022/01/07 03:11:37;;;;;;;6.83;3.98;;;;;;;0.47;69.82;101605.50;1799440;79;28789;-66
2022/01/07 03:14:04;;;;;;;11.05;4.12;;;;;;;0.43;69.06;101606.06;1799302;79;25488;-65
2022/01/07 03:16:31;;;;;;;10.15;3.92;;;;;;;0.42;69.07;101607.42;1771012;79;25751;-66
2022/01/07 03:19:01;;;;;;;10.45;3.60;;;;;;;0.42;68.89;101606.98;1799254;79;25789;-66
2022/01/07 03:21:28;;;;;;;10.18;3.55;;;;;;;0.42;68.59;101610.06;1761723;79;27378;-66
2022/01/07 03:23:54;;;;;;;9.88;3.10;;;;;;;0.41;67.98;101605.68;1761743;81;27482;-66
2022/01/07 03:26:25;;;;;;;9.30;4.30;;;;;;;0.40;67.29;101606.63;1761632;81;25725;-65
2022/01/07 03:28:53;;;;;;;8.93;3.37;;;;;;;0.42;67.82;101618.89;1761577;81;25734;-64
2022/01/07 03:31:21;;;;;;;8.68;3.90;;;;;;;0.45;67.26;101632.00;1792165;79;25883;-66
2022/01/07 03:33:48;;;;;;;6.22;3.15;;;;;;;0.44;66.62;101627.66;1761703;81;25772;-65
2022/01/07 03:36:15;;;;;;;7.40;3.15;;;;;;;0.45;66.45;101626.70;1762019;80;27421;-65
2022/01/07 03:38:44;;;;;;;6.55;2.80;;;;;;;0.46;65.93;101638.19;1780205;80;25747;-66
2022/01/07 03:41:10;;;;;;;4.75;2.92;;;;;;;0.43;65.97;101650.19;1793802;78;25476;-65
2022/01/07 03:43:37;;;;;;;7.22;3.40;;;;;;;0.42;65.06;101655.06;1773199;79;25807;-66
2022/01/07 03:46:04;;;;;;;12.33;3.47;;;;;;;0.45;65.54;101656.30;1767817;79;25814;-66
2022/01/07 03:48:34;;;;;;;9.88;3.87;;;;;;;0.43;64.88;101668.72;1750066;82;27508;-65
2022/01/07 03:51:04;;;;;;;9.28;3.22;;;;;;;0.44;65.24;101667.80;1791300;79;25757;-66
2022/01/07 03:53:31;;;;;;;5.25;3.42;;;;;;;0.40;64.64;101676.77;1782851;79;25451;-66
2022/01/07 03:55:57;;;;;;;9.00;3.10;;;;;;;0.38;64.98;101678.59;1800537;79;25796;-66
2022/01/07 03:58:26;;;;;;;6.55;3.90;;;;;;;0.38;64.57;101690.51;1802345;79;25843;-65
2022/01/07 04:00:52;;;;;;;8.35;3.65;;;;;;;0.39;64.90;101686.95;1777501;79;27555;-65
2022/01/07 04:03:20;;;;;;;7.85;3.27;;;;;;;0.40;65.02;101697.48;1790214;79;26450;-66
2022/01/07 04:05:52;;;;;;;11.88;3.50;;;;;;;0.40;64.77;101697.48;1801996;79;25646;-65
2022/01/07 04:08:19;;;;;;;7.15;2.67;;;;;;;0.40;64.19;101713.84;1802218;79;25879;-66
2022/01/07 04:10:48;;;;;;;11.78;5.83;;;;;;;0.39;64.06;101706.80;1802399;79;25728;-65
2022/01/07 04:13:15;;;;;;;4.87;3.17;;;;;;;0.38;64.14;101711.21;1800119;79;28177;-65
2022/01/07 04:15:42;;;;;;;7.20;2.77;;;;;;;0.42;64.62;101714.19;1802609;79;25750;-65
2022/01/07 04:18:09;;;;;;;6.25;3.50;;;;;;;0.48;64.85;101712.25;1783156;79;25804;-65
2022/01/07 04:20:37;;;;;;;6.60;3.17;;;;;;;0.52;65.15;101719.20;1767618;81;25719;-65
2022/01/07 04:23:07;;;;;;;7.12;2.85;;;;;;;0.51;64.31;101723.61;1778553;79;25820;-65
2022/01/07 04:25:34;;;;;;;14.83;4.97;;;;;;;0.47;63.39;101724.64;1802653;79;28100;-65
2022/01/07 04:28:07;;;;;;;8.83;4.30;;;;;;;0.51;64.52;101730.23;1802409;79;25745;-66
2022/01/07 04:30:39;;;;;;;11.63;3.87;;;;;;;0.52;63.94;101729.31;1796073;79;25792;-65
2022/01/07 04:33:07;;;;;;;9.88;4.33;;;;;;;0.51;63.70;101729.38;1778586;79;27940;-66
2022/01/07 04:35:35;;;;;;;10.95;3.02;;;;;;;0.50;63.61;101740.41;1802970;79;25697;-66
2022/01/07 04:38:04;;;;;;;12.82;3.65;;;;;;;0.53;64.22;101742.97;1775041;79;27461;-66
2022/01/07 04:40:32;;;;;;;7.90;2.62;;;;;;;0.53;64.00;101737.67;1767748;79;25746;-66
2022/01/07 04:43:00;;;;;;;9.83;3.25;;;;;;;0.55;64.10;101739.83;1765918;79;25815;-66
2022/01/07 04:45:27;;;;;;;8.08;3.50;;;;;;;0.59;63.91;101744.09;1762015;81;25829;-65
2022/01/07 04:47:54;;;;;;;9.65;3.95;;;;;;;0.60;63.77;101753.78;1761926;81;25723;-65
2022/01/07 04:50:22;;;;;;;10.60;3.90;;;;;;;0.56;62.62;101758.78;1762196;79;27455;-65
2022/01/07 04:52:50;;;;;;;6.83;3.00;;;;;;;0.53;63.25;101753.56;1761983;79;25799;-65
2022/01/07 04:55:29;;;;;;;6.67;2.95;;;;;;;0.52;63.31;101754.95;1791593;79;25745;-66
2022/01/07 04:57:59;;;;;;;5.03;1.92;;;;;;;0.54;63.47;101765.89;1799444;79;25818;-64
2022/01/07 05:00:26;;;;;;;6.75;2.70;;;;;;;0.59;63.44;101770.58;1799139;79;25740;-64
2022/01/07 05:02:53;;;;;;;7.62;3.08;;;;;;;0.64;63.05;101774.88;1797144;79;27489;-64
2022/01/07 05:05:20;;;;;;;6.75;3.45;;;;;;;0.62;61.77;101790.83;1799234;79;25793;-65
2022/01/07 05:07:47;;;;;;;6.75;3.58;;;;;;;0.58;61.11;101791.34;1799532;79;25813;-65
2022/01/07 05:10:15;;;;;;;9.48;3.08;;;;;;;0.55;61.01;101793.22;1799399;79;25815;-64
2022/01/07 05:12:46;;;;;;;7.58;3.40;;;;;;;0.49;60.09;101795.63;1795985;79;25707;-64
2022/01/07 05:15:15;;;;;;;5.53;2.83;;;;;;;0.46;60.62;101793.06;1761772;79;27397;-65
2022/01/07 05:17:44;;;;;;;5.65;2.98;;;;;;;0.52;61.47;101795.52;1760074;79;25872;-65
2022/01/07 05:20:14;;;;;;;3.37;2.47;;;;;;;0.53;61.55;101798.58;1798906;79;25836;-64
2022/01/07 05:22:41;;;;;;;5.12;2.62;;;;;;;0.53;60.97;101799.90;1796685;78;26461;-64
2022/01/07 05:25:12;;;;;;;5.03;2.35;;;;;;;0.48;60.44;101811.53;1761973;81;25739;-62
2022/01/07 05:27:39;;;;;;;4.15;2.08;;;;;;;0.46;60.64;101801.00;1761362;81;28179;-65
2022/01/07 05:30:09;;;;;;;7.87;2.75;;;;;;;0.49;60.91;101810.19;1761950;79;25763;-65
2022/01/07 05:32:36;;;;;;;4.17;2.17;;;;;;;0.47;61.01;101814.66;1782766;79;25786;-64
2022/01/07 05:35:05;;;;;;;6.80;2.00;;;;;;;0.40;60.83;101815.75;1791790;79;25824;-64
2022/01/07 05:37:32;;;;;;;5.78;2.50;;;;;;;0.39;61.04;101828.10;1781325;79;25834;-65
2022/01/07 05:39:59;;;;;;;7.20;2.67;;;;;;;0.38;60.69;101830.81;1761880;81;27474;-65
2022/01/07 05:42:30;;;;;;;5.17;2.52;;;;;;;0.34;60.37;101835.77;1768017;79;26441;-64
2022/01/07 05:44:59;;;;;;;2.95;2.02;;;;;;;0.31;60.94;101837.58;1794581;79;25829;-65
2022/01/07 05:47:27;;;;;;;4.50;2.45;;;;;;;0.24;60.44;101843.96;1809001;79;25948;-65
2022/01/07 05:49:57;;;;;;;5.42;2.55;;;;;;;0.17;60.72;101841.55;1805928;79;25673;-65
2022/01/07 05:52:24;;;;;;;6.65;3.10;;;;;;;0.10;60.74;101838.20;1777083;80;27566;-65
2022/01/07 05:54:51;;;;;;;8.05;4.25;;;;;;;-0.04;60.42;101847.83;1788124;80;25776;-64
2022/01/07 05:57:18;;;;;;;11.08;3.98;;;;;;;-0.15;61.01;101853.42;1778094;80;25725;-65
2022/01/07 05:59:45;;;;;;;9.05;3.40;;;;;;;-0.18;61.21;101856.98;1776127;80;25788;-63
2022/01/07 06:02:11;;;;;;;9.60;3.95;;;;;;;-0.26;61.33;101863.40;1778767;80;25782;-64
2022/01/07 06:04:38;;;;;;;5.92;2.90;;;;;;;-0.31;61.72;101871.45;1775435;80;28179;-65
2022/01/07 06:07:05;;;;;;;6.53;3.33;;;;;;;-0.37;61.89;101872.94;1775367;80;25755;-64
2022/01/07 06:09:34;;;;;;;6.03;2.60;;;;;;;-0.40;61.90;101883.58;1775476;80;25790;-64
2022/01/07 06:12:01;;;;;;;7.50;2.75;;;;;;;-0.47;61.99;101888.14;1775376;80;25786;-64
2022/01/07 06:14:30;;;;;;;6.72;3.22;;;;;;;-0.52;62.26;101879.47;1776706;80;25777;-64
2022/01/07 06:16:59;;;;;;;7.67;2.98;;;;;;;-0.55;62.16;101886.14;1786769;80;27483;-64
2022/01/07 06:19:26;;;;;;;7.40;3.33;;;;;;;-0.60;62.10;101894.18;1782961;79;25791;-65
2022/01/07 06:21:55;;;;;;;10.63;3.40;;;;;;;-0.59;62.60;101897.70;1779175;80;25735;-65
2022/01/07 06:24:22;;;;;;;7.92;3.17;;;;;;;-0.58;62.49;101905.59;1778929;80;27899;-64
2022/01/07 06:26:49;;;;;;;5.83;3.15;;;;;;;-0.57;62.68;101920.98;1779086;80;25784;-65
2022/01/07 06:29:16;;;;;;;9.33;3.72;;;;;;;-0.55;62.84;101920.06;1776391;80;27486;-65
2022/01/07 06:31:42;;;;;;;5.40;3.17;;;;;;;-0.55;62.00;101925.79;1776604;80;26434;-65
2022/01/07 06:34:09;;;;;;;6.22;3.45;;;;;;;-0.56;62.32;101931.55;1781318;80;25755;-64
2022/01/07 06:36:36;;;;;;;6.60;3.20;;;;;;;-0.56;61.95;101937.27;1798032;79;25786;-65
2022/01/07 06:39:04;;;;;;;12.50;3.83;;;;;;;-0.60;61.84;101935.14;1785611;80;25763;-65
2022/01/07 06:41:32;;;;;;;12.03;3.75;;;;;;;-0.55;62.31;101946.94;1787180;80;27436;-64
2022/01/07 06:43:59;;;;;;;7.20;3.67;;;;;;;-0.49;62.25;101944.14;1764418;79;25780;-65
2022/01/07 06:46:26;;;;;;;5.60;3.37;;;;;;;-0.47;62.21;101943.66;1803067;78;25781;-65
2022/01/07 06:48:55;;;;;;;9.58;4.58;;;;;;;-0.39;62.47;101948.77;1802414;79;27929;-65
2022/01/07 06:51:22;;;;;;;5.62;2.95;;;;;;;-0.37;62.40;101945.18;1801775;79;25736;-65
2022/01/07 06:53:49;;;;;;;11.35;4.00;;;;;;;-0.31;62.49;101952.10;1784272;79;27465;-65
2022/01/07 06:56:16;;;;;;;8.03;4.22;;;;;;;-0.23;62.69;101958.54;1780918;79;25837;-64
2022/01/07 06:58:42;;;;;;;10.23;4.78;;;;;;;-0.21;62.46;101948.77;1775144;80;25792;-65
2022/01/07 07:01:09;;;;;;;10.98;4.72;;;;;;;-0.16;62.83;101950.86;1777721;79;25817;-65
2022/01/07 07:03:40;;;;;;;9.95;4.50;;;;;;;-0.10;62.82;101953.34;1774329;79;25733;-65
2022/01/07 07:06:08;;;;;;;10.05;4.22;;;;;;;-0.07;62.26;101961.66;1795957;79;29260;-65
2022/01/07 07:08:35;;;;;;;8.23;4.60;;;;;;;-0.03;62.61;101957.57;1790981;78;25817;-65
2022/01/07 07:11:01;;;;;;;10.38;4.22;;;;;;;0.03;62.70;101964.48;1781026;80;25795;-64
2022/01/07 07:13:28;;;;;;;10.98;4.62;;;;;;;0.10;62.51;101958.59;1778792;79;26527;-65
2022/01/07 07:15:55;;;;;;;6.97;4.15;;;;;;;0.08;61.75;101961.73;1767549;79;25745;-64
2022/01/07 07:18:22;;;;;;;11.20;4.40;;;;;;;0.15;61.60;101972.13;1787072;79;27449;-65
2022/01/07 07:20:49;;;;;;;8.43;4.15;;;;;;;0.23;62.14;101971.05;1791866;79;25729;-65
2022/01/07 07:23:19;;;;;;;6.47;3.75;;;;;;;0.28;61.69;101967.81;1777735;79;25826;-65
2022/01/07 07:25:48;;;;;;;7.87;3.90;;;;;;;0.31;61.80;101972.57;1767074;81;26402;-65
2022/01/07 07:28:15;;;;;;;12.25;5.05;;;;;;;0.36;61.77;101967.62;1791133;79;25770;-65
2022/01/07 07:30:42;;;;;;;11.38;5.75;;;;;;;0.40;61.35;101971.47;1784749;79;27455;-65
2022/01/07 07:38:39;;;;;;;8.03;4.28;;;;;;;0.29;60.13;101985.44;1780976;79;25768;-65
2022/01/07 07:41:06;;;;;;;12.60;3.92;;;;;;;0.37;60.61;101986.11;1776959;79;25778;-66
2022/01/07 07:43:34;;;;;;;7.40;3.58;;;;;;;0.42;60.62;101993.92;1760653;80;27471;-65
2022/01/07 07:46:01;;;;;;;10.58;4.22;;;;;;;0.50;60.82;101989.30;1760506;80;25928;-65
2022/01/07 07:48:31;;;;;;;8.35;3.83;;;;;;;0.59;60.27;101993.48;1793684;80;25788;-65
2022/01/07 07:51:01;;;;;;;8.68;3.37;;;;;;;0.62;59.55;102000.89;1782783;80;25789;-65
2022/01/07 07:53:28;;;;;;;9.95;4.53;;;;;;;0.67;60.03;101998.59;1752439;80;25743;-65
2022/01/07 07:55:55;;;;;;;15.43;5.37;;;;;;;0.75;59.92;102005.87;1775073;80;28369;-65
2022/01/07 07:58:24;;;;;;;16.32;5.65;;;;;;;0.85;60.08;102006.00;1772392;80;25837;-65
2022/01/07 08:00:53;;;;;;;7.12;3.75;;;;;;;0.90;59.47;102016.47;1781253;80;25825;-65
2022/01/07 08:03:22;;;;;;;10.60;5.12;;;;;;;0.93;58.90;102017.28;1761435;79;26411;-65
2022/01/07 08:05:52;;;;;;;12.40;5.10;;;;;;;0.99;58.55;102016.67;1759500;80;25730;-66
2022/01/07 08:08:20;;;;;;;7.65;3.90;;;;;;;1.04;58.81;102019.61;1771989;80;27521;-67
2022/01/07 08:10:55;;;;;;;6.95;4.30;;;;;;;1.11;57.58;102015.01;1780034;80;26579;-67
2022/01/07 08:16:06;;;;;;;8.68;3.92;;;;;;;1.17;56.35;102032.05;1794093;80;26507;-65
2022/01/07 08:18:36;;;;;;;5.97;3.42;;;;;;;1.25;57.70;102027.39;1791058;78;25457;-64
2022/01/07 08:21:09;;;;;;;10.05;3.85;;;;;;;1.37;58.01;102020.85;1783633;80;27433;-66
2022/01/07 08:23:39;;;;;;;8.03;3.72;;;;;;;1.44;56.35;102026.84;1766880;80;25449;-64
2022/01/07 08:26:10;;;;;;;8.93;4.12;;;;;;;1.53;56.74;102036.30;1763861;80;25709;-63
2022/01/07 08:28:44;;;;;;;8.03;4.25;;;;;;;1.75;57.21;102034.31;1767899;80;25808;-64
2022/01/07 08:36:23;;;;;;;4.00;2.85;;;;;;;3.23;52.83;102027.91;1700578;82;26047;-63
2022/01/07 08:38:54;;;;;;;4.62;2.80;;;;;;;3.83;51.63;102034.05;1744917;82;25778;-63
2022/01/07 08:41:26;;;;;;;7.58;3.12;;;;;;;4.39;51.51;102025.98;1744518;82;26586;-64
2022/01/07 08:43:53;;;;;;;7.15;3.70;;;;;;;4.89;49.97;102027.83;1757711;80;25880;-64
2022/01/07 08:46:24;;;;;;;14.03;4.83;;;;;;;5.06;50.25;102028.90;1775132;80;28154;-64
2022/01/07 08:48:51;;;;;;;23.42;7.05;;;;;;;5.22;45.34;102031.27;1774217;80;25789;-64
2022/01/07 08:51:18;;;;;;;9.95;4.00;;;;;;;5.22;45.37;102030.37;1779519;80;25753;-65
2022/01/07 08:53:45;;;;;;;8.75;3.75;;;;;;;5.55;46.21;102026.61;1788145;80;25766;-65
2022/01/07 08:56:16;;;;;;;8.75;3.83;;;;;;;5.86;44.48;102014.92;1786640;80;25835;-65
2022/01/07 08:58:43;;;;;;;9.18;3.40;;;;;;;6.08;42.58;102025.45;1767508;80;27170;-65
2022/01/07 09:01:10;;;;;;;8.55;3.55;;;;;;;6.42;44.95;102022.41;1770964;78;25891;-65
2022/01/07 09:03:39;;;;;;;7.50;3.80;;;;;;;6.83;44.46;102018.52;1779253;79;25723;-65
2022/01/07 09:06:06;;;;;;;7.55;3.90;;;;;;;7.05;41.89;102019.58;1781499;79;25724;-66
2022/01/07 09:08:35;;;;;;;8.80;3.27;;;;;;;7.18;40.83;102015.77;1775383;79;25775;-65
2022/01/07 09:11:02;;;;;;;8.40;3.22;;;;;;;7.42;42.41;102003.34;1775973;79;28215;-65
2022/01/07 09:13:29;;;;;;;9.35;3.47;;;;;;;7.40;43.80;102003.89;1779817;79;25900;-66
2022/01/07 09:15:56;;;;;;;7.15;3.10;;;;;;;7.33;42.29;102010.05;1784451;79;25468;-66
2022/01/07 09:18:23;;;;;;;9.28;2.77;;;;;;;7.75;42.81;102007.73;1782473;80;26497;-66
2022/01/07 09:20:49;;;;;;;6.50;3.20;;;;;;;8.32;42.37;102011.62;1775036;80;26435;-65
2022/01/07 09:23:18;;;;;;;6.90;3.42;;;;;;;8.08;38.88;102017.45;1771060;80;28088;-65
2022/01/07 09:25:45;;;;;;;4.78;2.40;;;;;;;8.24;40.83;102011.61;1780413;80;25897;-66
2022/01/07 09:28:12;;;;;;;6.33;3.33;;;;;;;8.76;41.48;102003.59;1761972;81;25790;-65
2022/01/07 09:30:39;;;;;;;9.80;4.30;;;;;;;8.93;39.74;102005.72;1765583;80;26668;-66
2022/01/07 09:33:07;;;;;;;9.45;3.90;;;;;;;9.00;38.23;102003.06;1766899;80;25775;-65
2022/01/07 09:35:36;;;;;;;11.68;4.92;;;;;;;8.71;36.69;101999.47;1768115;80;27444;-65
2022/01/07 09:38:05;;;;;;;6.85;3.37;;;;;;;8.95;38.81;101995.75;1776074;80;25715;-64
2022/01/07 09:40:35;;;;;;;6.12;3.10;;;;;;;9.49;39.96;101995.05;1787079;79;25775;-65
2022/01/07 09:43:08;;;;;;;5.62;2.52;;;;;;;10.16;39.56;101990.70;1760742;80;28012;-65
2022/01/07 09:45:40;;;;;;;5.62;2.60;;;;;;;10.36;38.29;101991.14;1787267;79;25877;-66
2022/01/07 09:48:10;;;;;;;4.45;2.65;;;;;;;10.58;38.67;101991.44;1786867;79;28283;-66
2022/01/07 09:50:39;;;;;;;5.97;3.00;;;;;;;10.52;38.62;101991.00;1751888;79;27218;-66
2022/01/07 09:53:15;;;;;;;6.97;3.22;;;;;;;9.99;38.54;101993.16;1780128;79;25786;-66
2022/01/07 09:55:44;;;;;;;4.25;2.52;;;;;;;10.55;38.66;101986.76;1780996;79;26409;-65
2022/01/07 09:58:13;;;;;;;6.78;2.95;;;;;;;11.07;38.90;101983.09;1784211;79;25704;-66
2022/01/07 10:00:45;;;;;;;5.37;2.55;;;;;;;11.49;36.38;101977.86;1773438;79;27492;-66
2022/01/07 10:03:17;;;;;;;7.05;3.02;;;;;;;11.77;36.84;101979.88;1789917;79;25741;-66
2022/01/07 10:05:49;;;;;;;6.12;3.25;;;;;;;12.25;37.11;101977.65;1781200;79;25774;-66
2022/01/07 10:08:26;;;;;;;6.10;2.62;;;;;;;12.74;33.62;101975.20;1795513;79;25932;-66
2022/01/07 10:11:19;;;;;;;7.25;3.00;;;;;;;12.78;33.80;101971.77;1783208;79;25721;-65
2022/01/07 10:13:49;;;;;;;4.67;2.87;;;;;;;12.90;32.56;101971.28;1774774;79;26867;-66
2022/01/07 10:16:23;;;;;;;5.95;2.85;;;;;;;12.80;32.85;101963.06;1796626;79;25802;-66
2022/01/07 10:18:51;;;;;;;8.28;2.85;;;;;;;13.11;34.62;101969.58;1777414;79;25763;-66
2022/01/07 10:21:22;;;;;;;12.23;3.00;;;;;;;13.61;35.09;101970.99;1773405;79;25792;-65
2022/01/07 10:23:49;;;;;;;4.55;2.90;;;;;;;14.04;34.10;101969.27;1783508;79;25831;-66
2022/01/07 10:26:19;;;;;;;4.72;2.87;;;;;;;14.30;31.70;101963.47;1776222;79;27547;-64
2022/01/07 10:28:47;;;;;;;5.22;3.05;;;;;;;14.45;31.64;101966.20;1777338;79;25777;-66
2022/01/07 10:31:25;;;;;;;5.85;2.80;;;;;;;14.53;32.65;101967.75;1780988;79;25452;-66
2022/01/07 10:33:56;;;;;;;5.62;2.92;;;;;;;14.64;31.27;101964.61;1762783;79;26427;-66
2022/01/07 10:36:25;;;;;;;5.05;2.92;;;;;;;14.58;31.09;101976.83;1778343;79;26672;-66
2022/01/07 10:38:59;;;;;;;3.58;2.55;;;;;;;14.65;31.03;101970.39;1770024;78;46309;-66
2022/01/07 10:41:27;;;;;;;7.03;3.20;;;;;;;14.75;31.80;101969.14;1761075;80;26727;-66
2022/01/07 10:43:57;;;;;;;7.08;2.65;;;;;;;15.00;31.44;101971.88;1775280;80;25836;-65
2022/01/07 10:46:27;;;;;;;4.95;2.60;;;;;;;15.19;29.99;101968.41;1762679;79;25861;-65
2022/01/07 10:49:00;;;;;;;5.28;2.95;;;;;;;15.27;30.33;101975.84;1782545;79;25730;-65
2022/01/07 10:51:32;;;;;;;3.98;2.65;;;;;;;15.28;29.44;101970.30;1772556;79;27554;-66
2022/01/07 10:54:05;;;;;;;7.40;2.80;;;;;;;15.15;29.28;101965.60;1775553;79;25578;-66
2022/01/07 10:56:44;;;;;;;4.30;2.52;;;;;;;15.41;29.98;101970.53;1776145;79;25687;-65
2022/01/07 10:59:17;;;;;;;7.42;2.75;;;;;;;15.53;29.10;101967.19;1781992;79;26509;-66
2022/01/07 11:01:48;;;;;;;7.85;3.05;;;;;;;15.78;28.85;101961.23;1764276;79;25798;-67
2022/01/07 11:04:19;;;;;;;8.48;2.47;;;;;;;15.87;29.35;101962.80;1778014;78;28284;-66
2022/01/07 11:06:51;;;;;;;4.20;3.10;;;;;;;15.95;27.83;101960.23;1773883;79;25840;-66
2022/01/07 11:09:20;;;;;;;8.08;3.02;;;;;;;15.94;29.24;101970.20;1788775;79;25828;-66
2022/01/07 11:12:02;;;;;;;5.60;2.83;;;;;;;16.15;29.11;101958.84;1778429;79;25829;-66
2022/01/07 11:14:32;;;;;;;5.78;3.75;;;;;;;16.31;28.67;101962.34;1762146;79;25835;-66
2022/01/07 11:17:04;;;;;;;8.58;5.08;;;;;;;16.63;29.14;101963.86;1777007;79;27470;-67
2022/01/07 11:19:35;;;;;;;7.75;4.75;;;;;;;16.64;28.15;101958.76;1770472;80;25770;-67
2022/01/07 11:22:05;;;;;;;6.80;4.77;;;;;;;16.48;25.90;101963.47;1769640;79;25709;-66
2022/01/07 11:24:50;;;;;;;5.62;2.60;;;;;;;16.55;27.44;101965.42;1763389;79;25843;-66
2022/01/07 11:27:22;;;;;;;3.22;2.25;;;;;;;16.64;27.71;101958.76;1784709;79;25822;-67
2022/01/07 11:29:59;;;;;;;4.90;2.70;;;;;;;16.61;27.60;101954.48;1787610;79;27464;-66
2022/01/07 11:32:33;;;;;;;4.00;2.72;;;;;;;16.58;27.31;101952.92;1775015;79;25740;-66
2022/01/07 11:35:24;;;;;;;8.08;2.77;;;;;;;16.53;24.84;101957.08;1783652;79;26155;-66
2022/01/07 11:37:59;;;;;;;3.98;2.50;;;;;;;15.24;26.79;101953.94;1774570;79;25830;-67
2022/01/07 11:40:40;;;;;;;5.00;2.77;;;;;;;14.65;26.43;101950.95;1773266;79;26464;-65
2022/01/07 11:43:23;;;;;;;12.88;2.90;;;;;;;13.75;27.09;101958.56;1772075;79;27450;-67
2022/01/07 11:45:52;;;;;;;6.35;2.67;;;;;;;12.95;28.65;101962.34;1807142;78;25780;-66
2022/01/07 11:48:27;;;;;;;5.22;3.52;;;;;;;12.23;29.40;101954.00;1811933;78;25728;-67
2022/01/07 11:51:02;;;;;;;2.72;1.98;;;;;;;11.88;29.52;101955.17;1803826;78;25816;-65